sensor_id;sensor_type;location;lat;lon;timestamp;P1;durP1;ratioP1;P2;durP2;ratioP2
74100;SDS011;62462;52.530;21.682;2022-12-07T00:01:14;38.40;;;16.90;;
74100;SDS011;62462;52.530;21.682;2022-12-07T00:03:41;42.60;;;19.48;;
74100;SDS011;62462;52.530;21.682;2022-12-07T00:06:09;41.20;;;19.17;;
74100;SDS011;62462;52.530;21.682;2022-12-07T00:08:36;41.25;;;19.20;;
74100;SDS011;62462;52.530;21.682;2022-12-07T00:11:03;40.85;;;18.98;;
74100;SDS011;62462;52.530;21.682;2022-12-07T00:13:31;42.13;;;18.25;;
74100;SDS011;62462;52.530;21.682;2022-12-07T00:16:02;34.78;;;17.58;;
74100;SDS011;62462;52.530;21.682;2022-12-07T00:18:30;34.80;;;17.48;;
74100;SDS011;62462;52.530;21.682;2022-12-07T00:21:00;36.28;;;17.00;;
74100;SDS011;62462;52.530;21.682;2022-12-07T00:23:27;36.83;;;18.83;;
74100;SDS011;62462;52.530;21.682;2022-12-07T00:25:52;35.00;;;16.60;;
74100;SDS011;62462;52.530;21.682;2022-12-07T00:28:18;32.42;;;16.35;;
74100;SDS011;62462;52.530;21.682;2022-12-07T00:30:44;34.47;;;17.13;;
74100;SDS011;62462;52.530;21.682;2022-12-07T00:33:09;34.42;;;17.02;;
74100;SDS011;62462;52.530;21.682;2022-12-07T00:35:35;32.40;;;16.35;;
74100;SDS011;62462;52.530;21.682;2022-12-07T00:38:01;39.30;;;18.75;;
74100;SDS011;62462;52.530;21.682;2022-12-07T00:40:26;42.25;;;18.30;;
74100;SDS011;62462;52.530;21.682;2022-12-07T00:42:52;37.65;;;18.15;;
74100;SDS011;62462;52.530;21.682;2022-12-07T00:45:18;37.45;;;17.90;;
74100;SDS011;62462;52.530;21.682;2022-12-07T00:47:43;42.22;;;18.67;;
74100;SDS011;62462;52.530;21.682;2022-12-07T00:50:09;38.20;;;17.38;;
74100;SDS011;62462;52.530;21.682;2022-12-07T00:52:35;37.97;;;18.15;;
74100;SDS011;62462;52.530;21.682;2022-12-07T00:55:00;36.25;;;17.88;;
74100;SDS011;62462;52.530;21.682;2022-12-07T00:57:26;36.38;;;17.92;;
74100;SDS011;62462;52.530;21.682;2022-12-07T00:59:52;38.28;;;18.90;;
74100;SDS011;62462;52.530;21.682;2022-12-07T01:02:20;43.95;;;18.88;;
74100;SDS011;62462;52.530;21.682;2022-12-07T01:04:46;39.10;;;18.15;;
74100;SDS011;62462;52.530;21.682;2022-12-07T01:07:12;36.95;;;16.85;;
74100;SDS011;62462;52.530;21.682;2022-12-07T01:09:37;42.90;;;18.95;;
74100;SDS011;62462;52.530;21.682;2022-12-07T01:12:03;47.22;;;19.98;;
74100;SDS011;62462;52.530;21.682;2022-12-07T01:14:29;41.75;;;19.33;;
74100;SDS011;62462;52.530;21.682;2022-12-07T01:16:55;49.03;;;21.63;;
74100;SDS011;62462;52.530;21.682;2022-12-07T01:19:20;47.50;;;21.23;;
74100;SDS011;62462;52.530;21.682;2022-12-07T01:21:46;52.03;;;21.10;;
74100;SDS011;62462;52.530;21.682;2022-12-07T01:24:11;48.88;;;21.05;;
74100;SDS011;62462;52.530;21.682;2022-12-07T01:26:37;43.92;;;21.42;;
74100;SDS011;62462;52.530;21.682;2022-12-07T01:29:03;44.97;;;21.58;;
74100;SDS011;62462;52.530;21.682;2022-12-07T01:31:29;53.42;;;24.45;;
74100;SDS011;62462;52.530;21.682;2022-12-07T01:33:56;49.58;;;24.25;;
74100;SDS011;62462;52.530;21.682;2022-12-07T01:36:27;48.70;;;23.75;;
74100;SDS011;62462;52.530;21.682;2022-12-07T01:38:56;53.60;;;23.92;;
74100;SDS011;62462;52.530;21.682;2022-12-07T01:41:24;60.63;;;26.42;;
74100;SDS011;62462;52.530;21.682;2022-12-07T01:44:09;55.40;;;27.20;;
74100;SDS011;62462;52.530;21.682;2022-12-07T01:46:49;58.92;;;25.63;;
74100;SDS011;62462;52.530;21.682;2022-12-07T01:49:22;59.22;;;26.60;;
74100;SDS011;62462;52.530;21.682;2022-12-07T01:51:57;57.38;;;25.98;;
74100;SDS011;62462;52.530;21.682;2022-12-07T01:54:31;55.28;;;26.10;;
74100;SDS011;62462;52.530;21.682;2022-12-07T01:56:58;53.78;;;25.65;;
74100;SDS011;62462;52.530;21.682;2022-12-07T01:59:25;51.83;;;23.88;;
74100;SDS011;62462;52.530;21.682;2022-12-07T02:01:52;49.42;;;24.40;;
74100;SDS011;62462;52.530;21.682;2022-12-07T02:04:19;49.10;;;23.35;;
74100;SDS011;62462;52.530;21.682;2022-12-07T02:06:47;48.33;;;23.67;;
74100;SDS011;62462;52.530;21.682;2022-12-07T02:09:13;49.42;;;23.50;;
74100;SDS011;62462;52.530;21.682;2022-12-07T02:11:39;48.83;;;22.15;;
74100;SDS011;62462;52.530;21.682;2022-12-07T02:14:05;46.10;;;22.35;;
74100;SDS011;62462;52.530;21.682;2022-12-07T02:16:40;45.55;;;21.33;;
74100;SDS011;62462;52.530;21.682;2022-12-07T02:19:53;37.53;;;20.13;;
74100;SDS011;62462;52.530;21.682;2022-12-07T02:27:47;39.60;;;20.83;;
74100;SDS011;62462;52.530;21.682;2022-12-07T02:30:21;41.45;;;19.83;;
74100;SDS011;62462;52.530;21.682;2022-12-07T02:32:58;38.55;;;19.52;;
74100;SDS011;62462;52.530;21.682;2022-12-07T02:35:41;41.75;;;20.13;;
74100;SDS011;62462;52.530;21.682;2022-12-07T02:38:13;42.25;;;19.20;;
74100;SDS011;62462;52.530;21.682;2022-12-07T02:40:46;39.45;;;19.23;;
74100;SDS011;62462;52.530;21.682;2022-12-07T02:43:15;38.25;;;18.17;;
74100;SDS011;62462;52.530;21.682;2022-12-07T02:45:55;31.98;;;16.85;;
74100;SDS011;62462;52.530;21.682;2022-12-07T02:48:37;37.70;;;17.73;;
74100;SDS011;62462;52.530;21.682;2022-12-07T02:51:04;33.00;;;17.67;;
74100;SDS011;62462;52.530;21.682;2022-12-07T02:53:37;33.78;;;16.50;;
74100;SDS011;62462;52.530;21.682;2022-12-07T03:01:22;30.33;;;16.02;;
74100;SDS011;62462;52.530;21.682;2022-12-07T03:04:04;32.45;;;16.70;;
74100;SDS011;62462;52.530;21.682;2022-12-07T03:06:54;34.10;;;17.63;;
74100;SDS011;62462;52.530;21.682;2022-12-07T03:09:28;27.70;;;15.45;;
74100;SDS011;62462;52.530;21.682;2022-12-07T03:12:16;30.98;;;15.45;;
74100;SDS011;62462;52.530;21.682;2022-12-07T03:14:47;30.02;;;15.68;;
74100;SDS011;62462;52.530;21.682;2022-12-07T03:17:25;27.85;;;14.95;;
74100;SDS011;62462;52.530;21.682;2022-12-07T03:19:57;25.98;;;14.15;;
74100;SDS011;62462;52.530;21.682;2022-12-07T03:22:25;23.55;;;13.35;;
74100;SDS011;62462;52.530;21.682;2022-12-07T03:24:59;26.25;;;15.27;;
74100;SDS011;62462;52.530;21.682;2022-12-07T03:35:03;22.15;;;12.00;;
74100;SDS011;62462;52.530;21.682;2022-12-07T03:37:36;20.10;;;11.43;;
74100;SDS011;62462;52.530;21.682;2022-12-07T03:40:19;21.08;;;12.38;;
74100;SDS011;62462;52.530;21.682;2022-12-07T03:42:48;18.63;;;11.43;;
74100;SDS011;62462;52.530;21.682;2022-12-07T03:45:15;20.42;;;11.80;;
74100;SDS011;62462;52.530;21.682;2022-12-07T03:48:00;21.45;;;11.82;;
74100;SDS011;62462;52.530;21.682;2022-12-07T03:50:41;22.77;;;11.90;;
74100;SDS011;62462;52.530;21.682;2022-12-07T03:53:38;22.23;;;12.48;;
74100;SDS011;62462;52.530;21.682;2022-12-07T03:56:07;25.05;;;13.25;;
74100;SDS011;62462;52.530;21.682;2022-12-07T03:58:34;20.17;;;11.90;;
74100;SDS011;62462;52.530;21.682;2022-12-07T04:01:01;23.23;;;12.88;;
74100;SDS011;62462;52.530;21.682;2022-12-07T04:03:26;24.75;;;12.45;;
74100;SDS011;62462;52.530;21.682;2022-12-07T04:05:52;22.33;;;12.32;;
74100;SDS011;62462;52.530;21.682;2022-12-07T04:08:18;21.77;;;11.37;;
74100;SDS011;62462;52.530;21.682;2022-12-07T04:10:44;23.63;;;12.47;;
74100;SDS011;62462;52.530;21.682;2022-12-07T04:13:10;22.48;;;12.60;;
74100;SDS011;62462;52.530;21.682;2022-12-07T04:15:35;22.27;;;12.68;;
74100;SDS011;62462;52.530;21.682;2022-12-07T04:18:01;21.70;;;12.57;;
74100;SDS011;62462;52.530;21.682;2022-12-07T04:20:27;23.77;;;11.82;;
74100;SDS011;62462;52.530;21.682;2022-12-07T04:22:52;22.45;;;13.25;;
74100;SDS011;62462;52.530;21.682;2022-12-07T04:25:18;23.25;;;12.63;;
74100;SDS011;62462;52.530;21.682;2022-12-07T04:27:44;20.85;;;12.13;;
74100;SDS011;62462;52.530;21.682;2022-12-07T04:30:10;22.98;;;12.48;;
74100;SDS011;62462;52.530;21.682;2022-12-07T04:32:36;21.10;;;12.60;;
74100;SDS011;62462;52.530;21.682;2022-12-07T04:35:02;21.75;;;12.38;;
74100;SDS011;62462;52.530;21.682;2022-12-07T04:37:28;25.15;;;13.27;;
74100;SDS011;62462;52.530;21.682;2022-12-07T04:39:53;22.98;;;12.27;;
74100;SDS011;62462;52.530;21.682;2022-12-07T04:42:19;22.67;;;12.68;;
74100;SDS011;62462;52.530;21.682;2022-12-07T04:44:45;23.40;;;13.30;;
74100;SDS011;62462;52.530;21.682;2022-12-07T04:47:10;22.63;;;12.55;;
74100;SDS011;62462;52.530;21.682;2022-12-07T04:49:36;26.60;;;13.27;;
74100;SDS011;62462;52.530;21.682;2022-12-07T04:52:02;23.95;;;12.50;;
74100;SDS011;62462;52.530;21.682;2022-12-07T04:54:28;23.55;;;12.32;;
74100;SDS011;62462;52.530;21.682;2022-12-07T04:56:53;22.85;;;12.52;;
74100;SDS011;62462;52.530;21.682;2022-12-07T04:59:19;23.02;;;12.68;;
74100;SDS011;62462;52.530;21.682;2022-12-07T05:01:45;24.83;;;12.10;;
74100;SDS011;62462;52.530;21.682;2022-12-07T05:04:10;22.17;;;12.43;;
74100;SDS011;62462;52.530;21.682;2022-12-07T05:06:36;24.65;;;13.40;;
74100;SDS011;62462;52.530;21.682;2022-12-07T05:09:02;23.05;;;12.57;;
74100;SDS011;62462;52.530;21.682;2022-12-07T05:11:28;24.33;;;12.73;;
74100;SDS011;62462;52.530;21.682;2022-12-07T05:14:03;20.45;;;11.43;;
74100;SDS011;62462;52.530;21.682;2022-12-07T05:16:37;20.77;;;11.75;;
74100;SDS011;62462;52.530;21.682;2022-12-07T05:19:04;23.57;;;12.83;;
74100;SDS011;62462;52.530;21.682;2022-12-07T05:21:30;21.20;;;11.53;;
74100;SDS011;62462;52.530;21.682;2022-12-07T05:23:56;25.52;;;10.85;;
74100;SDS011;62462;52.530;21.682;2022-12-07T05:26:22;16.27;;;10.93;;
74100;SDS011;62462;52.530;21.682;2022-12-07T05:28:51;19.63;;;11.50;;
74100;SDS011;62462;52.530;21.682;2022-12-07T05:31:21;19.10;;;9.88;;
74100;SDS011;62462;52.530;21.682;2022-12-07T05:33:48;16.97;;;9.63;;
74100;SDS011;62462;52.530;21.682;2022-12-07T05:36:14;17.90;;;9.33;;
74100;SDS011;62462;52.530;21.682;2022-12-07T05:38:39;15.15;;;8.48;;
74100;SDS011;62462;52.530;21.682;2022-12-07T05:41:06;19.17;;;9.32;;
74100;SDS011;62462;52.530;21.682;2022-12-07T05:43:32;17.02;;;9.05;;
74100;SDS011;62462;52.530;21.682;2022-12-07T05:45:58;16.27;;;8.68;;
74100;SDS011;62462;52.530;21.682;2022-12-07T05:48:24;14.23;;;8.27;;
74100;SDS011;62462;52.530;21.682;2022-12-07T05:50:50;13.80;;;8.15;;
74100;SDS011;62462;52.530;21.682;2022-12-07T05:53:17;14.70;;;7.82;;
74100;SDS011;62462;52.530;21.682;2022-12-07T05:55:43;15.18;;;8.18;;
74100;SDS011;62462;52.530;21.682;2022-12-07T05:58:09;13.35;;;7.68;;
74100;SDS011;62462;52.530;21.682;2022-12-07T06:00:54;16.55;;;8.57;;
74100;SDS011;62462;52.530;21.682;2022-12-07T06:03:20;12.60;;;7.13;;
74100;SDS011;62462;52.530;21.682;2022-12-07T06:05:46;13.85;;;7.35;;
74100;SDS011;62462;52.530;21.682;2022-12-07T06:08:12;12.75;;;6.60;;
74100;SDS011;62462;52.530;21.682;2022-12-07T06:10:39;14.35;;;8.00;;
74100;SDS011;62462;52.530;21.682;2022-12-07T06:13:06;13.48;;;7.10;;
74100;SDS011;62462;52.530;21.682;2022-12-07T06:15:35;12.87;;;7.57;;
74100;SDS011;62462;52.530;21.682;2022-12-07T06:18:01;14.57;;;7.60;;
74100;SDS011;62462;52.530;21.682;2022-12-07T06:20:27;12.52;;;6.68;;
74100;SDS011;62462;52.530;21.682;2022-12-07T06:22:52;14.90;;;7.23;;
74100;SDS011;62462;52.530;21.682;2022-12-07T06:25:18;11.82;;;6.85;;
74100;SDS011;62462;52.530;21.682;2022-12-07T06:27:44;11.15;;;7.13;;
74100;SDS011;62462;52.530;21.682;2022-12-07T06:30:09;13.63;;;7.40;;
74100;SDS011;62462;52.530;21.682;2022-12-07T06:32:36;12.35;;;6.97;;
74100;SDS011;62462;52.530;21.682;2022-12-07T06:35:02;10.88;;;6.28;;
74100;SDS011;62462;52.530;21.682;2022-12-07T06:37:28;13.30;;;7.50;;
74100;SDS011;62462;52.530;21.682;2022-12-07T06:39:54;14.70;;;7.17;;
74100;SDS011;62462;52.530;21.682;2022-12-07T06:42:20;11.67;;;6.77;;
74100;SDS011;62462;52.530;21.682;2022-12-07T06:44:46;11.90;;;6.63;;
74100;SDS011;62462;52.530;21.682;2022-12-07T06:47:11;10.90;;;6.77;;
74100;SDS011;62462;52.530;21.682;2022-12-07T06:49:37;10.55;;;6.50;;
74100;SDS011;62462;52.530;21.682;2022-12-07T06:52:03;10.90;;;6.03;;
74100;SDS011;62462;52.530;21.682;2022-12-07T06:54:30;11.55;;;6.72;;
74100;SDS011;62462;52.530;21.682;2022-12-07T06:56:56;10.40;;;5.93;;
74100;SDS011;62462;52.530;21.682;2022-12-07T06:59:22;12.33;;;6.33;;
74100;SDS011;62462;52.530;21.682;2022-12-07T07:01:48;11.90;;;6.75;;
74100;SDS011;62462;52.530;21.682;2022-12-07T07:04:13;11.03;;;6.47;;
74100;SDS011;62462;52.530;21.682;2022-12-07T07:06:39;13.13;;;6.72;;
74100;SDS011;62462;52.530;21.682;2022-12-07T07:09:05;9.98;;;6.35;;
74100;SDS011;62462;52.530;21.682;2022-12-07T07:11:31;13.73;;;6.50;;
74100;SDS011;62462;52.530;21.682;2022-12-07T07:13:56;11.10;;;6.80;;
74100;SDS011;62462;52.530;21.682;2022-12-07T07:16:27;12.65;;;6.20;;
74100;SDS011;62462;52.530;21.682;2022-12-07T07:18:53;12.93;;;7.18;;
74100;SDS011;62462;52.530;21.682;2022-12-07T07:21:19;12.90;;;7.72;;
74100;SDS011;62462;52.530;21.682;2022-12-07T07:23:45;10.65;;;6.40;;
74100;SDS011;62462;52.530;21.682;2022-12-07T07:26:10;14.38;;;7.20;;
74100;SDS011;62462;52.530;21.682;2022-12-07T07:28:36;11.32;;;6.72;;
74100;SDS011;62462;52.530;21.682;2022-12-07T07:31:02;10.35;;;5.95;;
74100;SDS011;62462;52.530;21.682;2022-12-07T07:33:27;9.90;;;6.10;;
74100;SDS011;62462;52.530;21.682;2022-12-07T07:35:53;12.55;;;7.07;;
74100;SDS011;62462;52.530;21.682;2022-12-07T07:38:19;9.38;;;5.80;;
74100;SDS011;62462;52.530;21.682;2022-12-07T07:40:45;12.95;;;7.20;;
74100;SDS011;62462;52.530;21.682;2022-12-07T07:43:11;11.47;;;6.40;;
74100;SDS011;62462;52.530;21.682;2022-12-07T07:45:36;13.50;;;6.97;;
74100;SDS011;62462;52.530;21.682;2022-12-07T07:48:02;12.38;;;6.38;;
74100;SDS011;62462;52.530;21.682;2022-12-07T07:50:28;10.60;;;6.97;;
74100;SDS011;62462;52.530;21.682;2022-12-07T07:52:54;13.02;;;7.50;;
74100;SDS011;62462;52.530;21.682;2022-12-07T07:55:21;13.43;;;6.97;;
74100;SDS011;62462;52.530;21.682;2022-12-07T07:57:47;15.30;;;7.73;;
74100;SDS011;62462;52.530;21.682;2022-12-07T08:00:13;18.35;;;8.52;;
74100;SDS011;62462;52.530;21.682;2022-12-07T08:02:40;17.95;;;8.82;;
74100;SDS011;62462;52.530;21.682;2022-12-07T08:05:07;16.43;;;8.73;;
74100;SDS011;62462;52.530;21.682;2022-12-07T08:07:33;17.17;;;8.63;;
74100;SDS011;62462;52.530;21.682;2022-12-07T08:09:59;17.30;;;8.45;;
74100;SDS011;62462;52.530;21.682;2022-12-07T08:12:25;14.60;;;8.45;;
74100;SDS011;62462;52.530;21.682;2022-12-07T08:14:50;15.90;;;7.63;;
74100;SDS011;62462;52.530;21.682;2022-12-07T08:17:16;14.27;;;8.15;;
74100;SDS011;62462;52.530;21.682;2022-12-07T08:19:42;16.83;;;8.50;;
74100;SDS011;62462;52.530;21.682;2022-12-07T08:22:07;15.07;;;8.00;;
74100;SDS011;62462;52.530;21.682;2022-12-07T08:24:34;14.27;;;7.77;;
74100;SDS011;62462;52.530;21.682;2022-12-07T08:27:00;14.47;;;8.63;;
74100;SDS011;62462;52.530;21.682;2022-12-07T08:29:26;13.37;;;7.17;;
74100;SDS011;62462;52.530;21.682;2022-12-07T08:31:52;12.77;;;7.40;;
74100;SDS011;62462;52.530;21.682;2022-12-07T08:34:18;12.37;;;7.23;;
74100;SDS011;62462;52.530;21.682;2022-12-07T08:36:44;12.63;;;7.10;;
74100;SDS011;62462;52.530;21.682;2022-12-07T08:39:09;12.10;;;6.83;;
74100;SDS011;62462;52.530;21.682;2022-12-07T08:41:35;12.93;;;6.88;;
74100;SDS011;62462;52.530;21.682;2022-12-07T08:44:01;12.87;;;7.63;;
74100;SDS011;62462;52.530;21.682;2022-12-07T08:46:40;12.40;;;6.90;;
74100;SDS011;62462;52.530;21.682;2022-12-07T08:49:13;12.43;;;6.80;;
74100;SDS011;62462;52.530;21.682;2022-12-07T08:51:52;11.02;;;6.90;;
74100;SDS011;62462;52.530;21.682;2022-12-07T08:54:19;13.52;;;7.07;;
74100;SDS011;62462;52.530;21.682;2022-12-07T08:56:45;11.43;;;6.43;;
74100;SDS011;62462;52.530;21.682;2022-12-07T08:59:13;11.93;;;6.93;;
74100;SDS011;62462;52.530;21.682;2022-12-07T09:01:42;12.23;;;6.50;;
74100;SDS011;62462;52.530;21.682;2022-12-07T09:04:08;11.30;;;6.77;;
74100;SDS011;62462;52.530;21.682;2022-12-07T09:06:34;10.90;;;6.03;;
74100;SDS011;62462;52.530;21.682;2022-12-07T09:09:00;16.13;;;7.75;;
74100;SDS011;62462;52.530;21.682;2022-12-07T09:11:26;10.82;;;6.10;;
74100;SDS011;62462;52.530;21.682;2022-12-07T09:13:52;10.57;;;6.70;;
74100;SDS011;62462;52.530;21.682;2022-12-07T09:16:18;11.45;;;6.80;;
74100;SDS011;62462;52.530;21.682;2022-12-07T09:18:44;13.70;;;7.13;;
74100;SDS011;62462;52.530;21.682;2022-12-07T09:21:09;13.30;;;7.63;;
74100;SDS011;62462;52.530;21.682;2022-12-07T09:23:35;10.45;;;5.93;;
74100;SDS011;62462;52.530;21.682;2022-12-07T09:26:01;13.33;;;7.10;;
74100;SDS011;62462;52.530;21.682;2022-12-07T09:28:29;10.10;;;6.05;;
74100;SDS011;62462;52.530;21.682;2022-12-07T09:30:55;11.33;;;6.23;;
74100;SDS011;62462;52.530;21.682;2022-12-07T09:33:21;11.48;;;6.18;;
74100;SDS011;62462;52.530;21.682;2022-12-07T09:35:47;12.20;;;6.25;;
74100;SDS011;62462;52.530;21.682;2022-12-07T09:38:14;10.90;;;6.57;;
74100;SDS011;62462;52.530;21.682;2022-12-07T09:40:41;11.60;;;6.93;;
74100;SDS011;62462;52.530;21.682;2022-12-07T09:43:15;13.83;;;7.20;;
74100;SDS011;62462;52.530;21.682;2022-12-07T09:45:44;11.53;;;6.27;;
74100;SDS011;62462;52.530;21.682;2022-12-07T09:48:22;11.50;;;6.57;;
74100;SDS011;62462;52.530;21.682;2022-12-07T09:50:55;14.47;;;8.40;;
74100;SDS011;62462;52.530;21.682;2022-12-07T09:53:25;15.97;;;8.40;;
74100;SDS011;62462;52.530;21.682;2022-12-07T09:55:54;15.87;;;8.70;;
74100;SDS011;62462;52.530;21.682;2022-12-07T09:58:21;16.67;;;8.83;;
74100;SDS011;62462;52.530;21.682;2022-12-07T10:01:05;17.73;;;9.53;;
74100;SDS011;62462;52.530;21.682;2022-12-07T10:03:36;20.27;;;10.13;;
74100;SDS011;62462;52.530;21.682;2022-12-07T10:06:03;17.77;;;10.20;;
74100;SDS011;62462;52.530;21.682;2022-12-07T10:08:30;17.27;;;9.57;;
74100;SDS011;62462;52.530;21.682;2022-12-07T10:10:57;16.85;;;9.75;;
74100;SDS011;62462;52.530;21.682;2022-12-07T10:16:35;16.67;;;9.53;;
74100;SDS011;62462;52.530;21.682;2022-12-07T10:19:19;16.95;;;10.00;;
74100;SDS011;62462;52.530;21.682;2022-12-07T10:22:26;20.90;;;10.95;;
74100;SDS011;62462;52.530;21.682;2022-12-07T10:24:46;21.40;;;9.77;;
74100;SDS011;62462;52.530;21.682;2022-12-07T10:27:19;19.50;;;10.63;;
74100;SDS011;62462;52.530;21.682;2022-12-07T10:29:51;19.67;;;10.85;;
74100;SDS011;62462;52.530;21.682;2022-12-07T10:34:43;23.33;;;10.55;;
74100;SDS011;62462;52.530;21.682;2022-12-07T10:39:48;19.53;;;10.60;;
74100;SDS011;62462;52.530;21.682;2022-12-07T10:42:19;19.03;;;10.63;;
74100;SDS011;62462;52.530;21.682;2022-12-07T10:44:47;18.35;;;9.60;;
74100;SDS011;62462;52.530;21.682;2022-12-07T10:53:18;17.15;;;9.05;;
74100;SDS011;62462;52.530;21.682;2022-12-07T10:56:11;18.27;;;9.02;;
74100;SDS011;62462;52.530;21.682;2022-12-07T10:59:17;18.13;;;9.02;;
74100;SDS011;62462;52.530;21.682;2022-12-07T11:04:26;22.52;;;9.32;;
74100;SDS011;62462;52.530;21.682;2022-12-07T11:07:14;20.35;;;9.07;;
74100;SDS011;62462;52.530;21.682;2022-12-07T11:10:14;15.50;;;8.45;;
74100;SDS011;62462;52.530;21.682;2022-12-07T11:18:26;18.70;;;10.02;;
74100;SDS011;62462;52.530;21.682;2022-12-07T11:37:31;18.38;;;8.35;;
74100;SDS011;62462;52.530;21.682;2022-12-07T11:40:09;17.75;;;8.00;;
74100;SDS011;62462;52.530;21.682;2022-12-07T11:45:41;19.60;;;7.65;;
74100;SDS011;62462;52.530;21.682;2022-12-07T11:53:25;18.30;;;7.65;;
74100;SDS011;62462;52.530;21.682;2022-12-07T11:58:38;24.00;;;8.18;;
74100;SDS011;62462;52.530;21.682;2022-12-07T12:03:49;19.65;;;7.82;;
74100;SDS011;62462;52.530;21.682;2022-12-07T12:06:20;14.73;;;7.05;;
74100;SDS011;62462;52.530;21.682;2022-12-07T12:17:39;19.95;;;8.60;;
74100;SDS011;62462;52.530;21.682;2022-12-07T12:20:22;17.33;;;8.38;;
74100;SDS011;62462;52.530;21.682;2022-12-07T12:22:58;15.77;;;6.90;;
74100;SDS011;62462;52.530;21.682;2022-12-07T12:25:52;16.15;;;6.82;;
74100;SDS011;62462;52.530;21.682;2022-12-07T12:28:22;23.15;;;8.82;;
74100;SDS011;62462;52.530;21.682;2022-12-07T12:33:48;15.55;;;8.13;;
74100;SDS011;62462;52.530;21.682;2022-12-07T12:47:01;21.50;;;8.73;;
74100;SDS011;62462;52.530;21.682;2022-12-07T12:57:34;14.32;;;6.75;;
74100;SDS011;62462;52.530;21.682;2022-12-07T13:00:02;14.18;;;7.50;;
74100;SDS011;62462;52.530;21.682;2022-12-07T13:02:53;16.38;;;7.10;;
74100;SDS011;62462;52.530;21.682;2022-12-07T13:05:21;17.58;;;7.05;;
74100;SDS011;62462;52.530;21.682;2022-12-07T13:10:44;14.60;;;7.35;;
74100;SDS011;62462;52.530;21.682;2022-12-07T13:15:42;16.00;;;7.30;;
74100;SDS011;62462;52.530;21.682;2022-12-07T13:23:36;16.27;;;8.25;;
74100;SDS011;62462;52.530;21.682;2022-12-07T13:28:51;15.60;;;7.75;;
74100;SDS011;62462;52.530;21.682;2022-12-07T13:37:13;20.33;;;9.25;;
74100;SDS011;62462;52.530;21.682;2022-12-07T13:39:46;16.20;;;8.30;;
74100;SDS011;62462;52.530;21.682;2022-12-07T13:44:50;20.77;;;10.38;;
74100;SDS011;62462;52.530;21.682;2022-12-07T13:50:21;19.40;;;9.18;;
74100;SDS011;62462;52.530;21.682;2022-12-07T13:52:50;22.20;;;11.07;;
74100;SDS011;62462;52.530;21.682;2022-12-07T13:55:19;18.83;;;9.93;;
74100;SDS011;62462;52.530;21.682;2022-12-07T13:57:47;22.45;;;10.73;;
74100;SDS011;62462;52.530;21.682;2022-12-07T14:05:27;26.15;;;12.18;;
74100;SDS011;62462;52.530;21.682;2022-12-07T14:08:01;20.20;;;10.35;;
74100;SDS011;62462;52.530;21.682;2022-12-07T14:12:59;20.30;;;10.75;;
74100;SDS011;62462;52.530;21.682;2022-12-07T14:15:29;21.60;;;10.68;;
74100;SDS011;62462;52.530;21.682;2022-12-07T14:17:58;21.90;;;10.80;;
74100;SDS011;62462;52.530;21.682;2022-12-07T14:20:29;21.85;;;10.70;;
74100;SDS011;62462;52.530;21.682;2022-12-07T14:23:06;21.67;;;12.13;;
74100;SDS011;62462;52.530;21.682;2022-12-07T14:25:51;25.05;;;11.70;;
74100;SDS011;62462;52.530;21.682;2022-12-07T14:28:51;23.90;;;12.90;;
74100;SDS011;62462;52.530;21.682;2022-12-07T14:31:12;23.77;;;13.45;;
74100;SDS011;62462;52.530;21.682;2022-12-07T14:33:42;28.10;;;14.40;;
74100;SDS011;62462;52.530;21.682;2022-12-07T14:36:11;23.40;;;12.40;;
74100;SDS011;62462;52.530;21.682;2022-12-07T14:38:38;22.90;;;12.07;;
74100;SDS011;62462;52.530;21.682;2022-12-07T14:41:06;20.30;;;11.23;;
74100;SDS011;62462;52.530;21.682;2022-12-07T14:43:58;20.08;;;10.93;;
74100;SDS011;62462;52.530;21.682;2022-12-07T14:46:25;21.45;;;11.40;;
74100;SDS011;62462;52.530;21.682;2022-12-07T14:48:50;22.05;;;12.40;;
74100;SDS011;62462;52.530;21.682;2022-12-07T14:51:16;22.02;;;11.43;;
74100;SDS011;62462;52.530;21.682;2022-12-07T14:53:46;19.67;;;11.00;;
74100;SDS011;62462;52.530;21.682;2022-12-07T14:56:15;20.27;;;11.00;;
74100;SDS011;62462;52.530;21.682;2022-12-07T14:58:40;21.45;;;11.35;;
74100;SDS011;62462;52.530;21.682;2022-12-07T15:01:06;24.02;;;12.40;;
74100;SDS011;62462;52.530;21.682;2022-12-07T15:03:32;23.90;;;12.13;;
74100;SDS011;62462;52.530;21.682;2022-12-07T15:05:59;22.10;;;11.70;;
74100;SDS011;62462;52.530;21.682;2022-12-07T15:08:26;21.70;;;11.75;;
74100;SDS011;62462;52.530;21.682;2022-12-07T15:10:52;20.63;;;10.80;;
74100;SDS011;62462;52.530;21.682;2022-12-07T15:13:17;21.63;;;11.27;;
74100;SDS011;62462;52.530;21.682;2022-12-07T15:16:01;21.13;;;11.00;;
74100;SDS011;62462;52.530;21.682;2022-12-07T15:18:27;20.02;;;10.55;;
74100;SDS011;62462;52.530;21.682;2022-12-07T15:20:53;18.02;;;9.85;;
74100;SDS011;62462;52.530;21.682;2022-12-07T15:23:19;19.63;;;11.00;;
74100;SDS011;62462;52.530;21.682;2022-12-07T15:25:45;19.80;;;10.95;;
74100;SDS011;62462;52.530;21.682;2022-12-07T15:28:12;18.42;;;9.82;;
74100;SDS011;62462;52.530;21.682;2022-12-07T15:30:38;18.98;;;10.15;;
74100;SDS011;62462;52.530;21.682;2022-12-07T15:33:05;18.55;;;10.07;;
74100;SDS011;62462;52.530;21.682;2022-12-07T15:35:31;19.25;;;10.30;;
74100;SDS011;62462;52.530;21.682;2022-12-07T15:37:57;21.48;;;11.45;;
74100;SDS011;62462;52.530;21.682;2022-12-07T15:40:22;18.27;;;9.68;;
74100;SDS011;62462;52.530;21.682;2022-12-07T15:42:48;21.40;;;11.43;;
74100;SDS011;62462;52.530;21.682;2022-12-07T15:45:14;20.75;;;10.68;;
74100;SDS011;62462;52.530;21.682;2022-12-07T15:47:40;21.08;;;11.07;;
74100;SDS011;62462;52.530;21.682;2022-12-07T15:50:09;20.50;;;10.48;;
74100;SDS011;62462;52.530;21.682;2022-12-07T15:52:36;21.85;;;11.65;;
74100;SDS011;62462;52.530;21.682;2022-12-07T15:55:03;26.77;;;12.93;;
74100;SDS011;62462;52.530;21.682;2022-12-07T15:57:29;20.90;;;11.32;;
74100;SDS011;62462;52.530;21.682;2022-12-07T15:59:56;22.48;;;11.68;;
74100;SDS011;62462;52.530;21.682;2022-12-07T16:02:21;24.55;;;12.48;;
74100;SDS011;62462;52.530;21.682;2022-12-07T16:04:48;21.27;;;12.25;;
74100;SDS011;62462;52.530;21.682;2022-12-07T16:07:15;23.80;;;12.60;;
74100;SDS011;62462;52.530;21.682;2022-12-07T16:09:41;30.50;;;13.82;;
74100;SDS011;62462;52.530;21.682;2022-12-07T16:12:07;28.13;;;14.65;;
74100;SDS011;62462;52.530;21.682;2022-12-07T16:14:34;27.33;;;14.60;;
74100;SDS011;62462;52.530;21.682;2022-12-07T16:17:00;30.00;;;14.27;;
74100;SDS011;62462;52.530;21.682;2022-12-07T16:19:26;22.85;;;13.50;;
74100;SDS011;62462;52.530;21.682;2022-12-07T16:21:53;24.55;;;13.23;;
74100;SDS011;62462;52.530;21.682;2022-12-07T16:24:18;21.77;;;13.23;;
74100;SDS011;62462;52.530;21.682;2022-12-07T16:26:44;22.17;;;12.48;;
74100;SDS011;62462;52.530;21.682;2022-12-07T16:29:11;21.83;;;12.45;;
74100;SDS011;62462;52.530;21.682;2022-12-07T16:31:37;21.30;;;12.63;;
74100;SDS011;62462;52.530;21.682;2022-12-07T16:34:03;23.45;;;13.35;;
74100;SDS011;62462;52.530;21.682;2022-12-07T16:36:29;20.02;;;11.48;;
74100;SDS011;62462;52.530;21.682;2022-12-07T16:38:54;21.25;;;12.20;;